Terminal Aerodrome Forecast
Issued by NWS

Home | Current Version | Previous Version | Text Only | Print | Product List | Glossary On
Versions: 1 2 3 4 5 6 7 8 9 10 11 12 13
000
FTUS45 KGJT 252341 AAB
TAFCNY
TAF AMD
KCNY 252341Z 2600/2624 30012G18KT P6SM VCTS SCT100CB SCT150
      TEMPO 2600/2603 VRB15G25KT P6SM -TSRA BKN100CB
     FM260300 33008KT P6SM SCT140
     FM260800 12005KT P6SM FEW250
     FM262000 33006KT P6SM SCT120=

USA.gov is the U.S. government's official web portal to all federal, state and local government web resources and services.